Skip to main content

NOAA/GLERL Met Station at Chicago, IL

Previous 3 Hours (2 minute increments)
See also Previous 5 Days (top of hour)
Jump down to Data
Switch to [English][Metric]
Zoom: Click and drag, Pan: shift-click and drag, Unzoom: double-click, Unzoom All




See also 1-day windrose plot


NOAA/GLERL Met Station at Chicago, IL

Previous 3 Hours (2 minute increments)
See also Previous 5 Days (top of hour only)
Jump up to Graphs
Switch to [English][Metric]
                  Wind  Wind  Wind   Air   Dew   Rel
                   Spd   Gst   Dir  Temp    Pt   Hum
YYYY-MM-DD   CDT   kts   kts   deg     F     F     %
2022-10-03 12:20   3.9   4.7    92  58.3  46.2  63.9
2022-10-03 12:18   3.3   4.5    88  58.5  46.3  63.6
2022-10-03 12:16   2.9   3.9    89  58.5  46.2  63.3
2022-10-03 12:14   1.7   2.3    90  58.1  46.0  63.8
2022-10-03 12:12   2.1   2.7    72  57.7  46.0  64.6
2022-10-03 12:10   2.3   3.3    62  57.4  45.8  64.8
2022-10-03 12:08   2.3   3.5    59  57.6  46.3  65.7
2022-10-03 12:06   0.4   1.2     2  57.6  46.2  65.6
2022-10-03 12:04   0.0   0.0    70  57.6  46.1  65.3
2022-10-03 12:02   0.6   1.0    41  57.2  45.9  65.7
2022-10-03 12:00   0.6   1.0    36  57.2  45.9  65.5
2022-10-03 11:58   0.6   1.0   360  57.2  45.6  64.8
2022-10-03 11:56   0.8   1.2   358  57.4  45.5  64.2
2022-10-03 11:54   1.2   1.6    16  57.9  45.5  63.0
2022-10-03 11:52   1.2   1.6    43  59.4  45.7  60.1
2022-10-03 11:50   1.0   1.6   107  59.9  45.9  59.4
2022-10-03 11:48   1.0   1.6    98  59.9  45.6  58.9
2022-10-03 11:46   1.2   1.9   115  59.9  45.8  59.2
2022-10-03 11:44   1.9   2.5   118  59.7  45.5  58.9
2022-10-03 11:42   2.9   3.5   123  59.7  45.4  58.8
2022-10-03 11:40   3.1   3.5   127  60.1  45.9  59.0
2022-10-03 11:38   3.3   4.1   126  60.1  45.6  58.4
2022-10-03 11:36   1.6   3.7   123  59.9  45.4  58.4
2022-10-03 11:34   0.0   0.4   224  59.9  45.1  57.7
2022-10-03 11:32   0.8   1.4   136  59.9  45.2  57.9
2022-10-03 11:30   1.7   3.1   143  59.7  45.1  58.1
2022-10-03 11:28   0.8   2.5   147  59.5  45.3  58.8
2022-10-03 11:26   1.2   1.6   121  59.4  45.4  59.4
2022-10-03 11:24   1.0   1.9   147  59.0  45.4  60.3
2022-10-03 11:22   1.0   2.3   131  58.3  45.6  62.3
2022-10-03 11:20   0.6   1.4   172  57.6  45.2  63.0
2022-10-03 11:18   1.9   2.7   187  57.4  45.2  63.4
2022-10-03 11:16   1.4   2.1   190  56.8  45.0  64.3
2022-10-03 11:14   1.4   1.7   199  57.0  45.0  63.8
2022-10-03 11:12   2.1   2.7   199  57.4  45.1  63.3
2022-10-03 11:10   1.7   2.5   183  57.7  45.2  62.7
2022-10-03 11:08   2.1   2.7   191  57.9  45.2  62.2
2022-10-03 11:06   2.1   2.7   187  58.5  44.8  60.1
2022-10-03 11:04   0.2   1.9   179  59.2  45.3  59.7
2022-10-03 11:02   0.2   0.8   173  59.0  45.3  60.0
2022-10-03 11:00   0.2   1.0   185  59.0  45.1  59.6
2022-10-03 10:58   1.7   2.9   175  59.4  45.1  58.7
2022-10-03 10:56   0.8   2.5   141  59.7  45.3  58.4
2022-10-03 10:54   2.3   3.1   108  59.9  45.8  59.2
2022-10-03 10:52   2.5   3.5   115  59.9  45.5  58.6
2022-10-03 10:50   1.4   2.5   131  59.5  45.2  58.6
2022-10-03 10:48   0.8   1.6   178  59.9  45.0  57.5
2022-10-03 10:46   1.2   1.9   125  59.9  45.1  57.7
2022-10-03 10:44   1.4   2.1   133  59.5  45.3  58.9
2022-10-03 10:42   0.2   1.0   148  59.4  45.4  59.5
2022-10-03 10:40   0.6   1.2   148  59.0  45.1  59.6
2022-10-03 10:38   1.6   2.1   143  59.0  45.3  60.0
2022-10-03 10:36   1.7   2.9   127  58.8  45.4  60.7
2022-10-03 10:34   1.2   1.7   103  58.8  45.5  60.9
2022-10-03 10:32   1.6   2.9   124  58.6  45.5  61.2
2022-10-03 10:30   2.5   3.3   103  58.8  45.4  60.6
2022-10-03 10:28   2.9   3.5   117  58.8  45.6  61.1
2022-10-03 10:26   1.6   3.3   155  58.5  45.8  62.4
2022-10-03 10:24   1.6   3.1   111  58.5  45.3  61.3
2022-10-03 10:22   2.7   3.5   118  58.5  45.5  61.7
2022-10-03 10:20   4.5   5.4   132  58.3  45.3  61.7
2022-10-03 10:18   4.7   5.6   138  58.3  45.5  62.1
2022-10-03 10:16   2.1   5.2   150  58.1  46.0  63.8
2022-10-03 10:14   1.9   3.9   152  58.1  45.8  63.2
2022-10-03 10:12   2.3   2.9   174  57.7  45.4  63.2
2022-10-03 10:10   1.7   2.5   177  58.1  45.3  62.0
2022-10-03 10:08   2.7   4.1   130  58.1  45.5  62.4
2022-10-03 10:06   3.7   4.7   132  57.9  45.5  63.0
2022-10-03 10:04   2.5   3.7   182  57.9  45.4  62.7
2022-10-03 10:02   1.4   2.3   126  58.1  45.7  63.1
2022-10-03 10:00   3.3   3.9   146  57.9  45.4  62.8
2022-10-03 09:58   1.7   3.3   132  57.7  46.0  64.6
2022-10-03 09:56   2.5   4.1   178  57.2  45.6  64.8
2022-10-03 09:54   4.1   5.1   182  57.4  45.3  63.7
2022-10-03 09:52   4.3   5.4   163  57.6  45.2  63.0
2022-10-03 09:50   3.1   5.2   168  57.7  45.4  63.2
2022-10-03 09:48   2.3   3.7   148  57.7  45.3  62.8
2022-10-03 09:46   3.1   4.1   157  57.7  45.2  62.5
2022-10-03 09:44   2.9   4.3   134  57.6  45.3  63.2
2022-10-03 09:42   2.3   3.9   149  57.4  45.3  63.7
2022-10-03 09:40   3.3   4.9   138  57.2  45.1  63.6
2022-10-03 09:38   3.9   5.4   137  57.2  45.7  65.2
2022-10-03 09:36   2.1   4.5   142  56.8  46.2  67.1
2022-10-03 09:34   2.7   3.7   188  56.8  45.9  66.5
2022-10-03 09:32   1.9   3.3   150  57.0  45.5  65.0
2022-10-03 09:30   3.1   4.7   123  56.8  45.7  65.9
2022-10-03 09:28   1.9   3.5   159  56.7  46.0  67.1
2022-10-03 09:26   2.5   4.5   172  56.5  46.2  68.1
2022-10-03 09:24   3.3   4.3   173  56.5  46.2  68.2
2022-10-03 09:22   3.3   4.3   178  56.3  46.0  68.1
2022-10-03 09:20   4.3   5.4   178  56.1  45.7  67.7